sensor_id;sensor_type;location;lat;lon;timestamp;P1;durP1;ratioP1;P2;durP2;ratioP2
3083;SDS011;1552;51.952;7.618;2023-04-06T00:01:17;13.23;;;8.20;;
3083;SDS011;1552;51.952;7.618;2023-04-06T00:03:43;13.03;;;7.83;;
3083;SDS011;1552;51.952;7.618;2023-04-06T00:06:10;11.53;;;7.43;;
3083;SDS011;1552;51.952;7.618;2023-04-06T00:08:36;10.20;;;7.43;;
3083;SDS011;1552;51.952;7.618;2023-04-06T00:11:02;12.17;;;7.33;;
3083;SDS011;1552;51.952;7.618;2023-04-06T00:13:30;13.30;;;7.60;;
3083;SDS011;1552;51.952;7.618;2023-04-06T00:15:57;9.97;;;7.47;;
3083;SDS011;1552;51.952;7.618;2023-04-06T00:18:23;14.00;;;7.37;;
3083;SDS011;1552;51.952;7.618;2023-04-06T00:20:49;13.07;;;7.37;;
3083;SDS011;1552;51.952;7.618;2023-04-06T00:23:16;12.73;;;7.93;;
3083;SDS011;1552;51.952;7.618;2023-04-06T00:25:42;13.23;;;7.30;;
3083;SDS011;1552;51.952;7.618;2023-04-06T00:28:09;9.50;;;7.37;;
3083;SDS011;1552;51.952;7.618;2023-04-06T00:30:36;12.87;;;8.53;;
3083;SDS011;1552;51.952;7.618;2023-04-06T00:33:03;12.20;;;7.57;;
3083;SDS011;1552;51.952;7.618;2023-04-06T00:35:29;12.93;;;8.23;;
3083;SDS011;1552;51.952;7.618;2023-04-06T00:37:56;10.37;;;7.40;;
3083;SDS011;1552;51.952;7.618;2023-04-06T00:40:22;11.13;;;7.40;;
3083;SDS011;1552;51.952;7.618;2023-04-06T00:42:48;11.57;;;7.23;;
3083;SDS011;1552;51.952;7.618;2023-04-06T00:45:15;12.90;;;7.77;;
3083;SDS011;1552;51.952;7.618;2023-04-06T00:47:43;12.73;;;8.10;;
3083;SDS011;1552;51.952;7.618;2023-04-06T00:50:09;10.90;;;7.40;;
3083;SDS011;1552;51.952;7.618;2023-04-06T00:52:35;12.67;;;7.33;;
3083;SDS011;1552;51.952;7.618;2023-04-06T00:55:02;13.53;;;8.00;;
3083;SDS011;1552;51.952;7.618;2023-04-06T00:57:28;12.20;;;7.63;;
3083;SDS011;1552;51.952;7.618;2023-04-06T00:59:54;9.67;;;7.13;;
3083;SDS011;1552;51.952;7.618;2023-04-06T01:02:21;13.40;;;8.07;;
3083;SDS011;1552;51.952;7.618;2023-04-06T01:04:49;12.03;;;8.40;;
3083;SDS011;1552;51.952;7.618;2023-04-06T01:07:15;12.73;;;8.27;;
3083;SDS011;1552;51.952;7.618;2023-04-06T01:09:41;9.83;;;7.27;;
3083;SDS011;1552;51.952;7.618;2023-04-06T01:12:08;10.87;;;7.43;;
3083;SDS011;1552;51.952;7.618;2023-04-06T01:14:34;11.97;;;7.73;;
3083;SDS011;1552;51.952;7.618;2023-04-06T01:17:01;10.17;;;7.27;;
3083;SDS011;1552;51.952;7.618;2023-04-06T01:19:27;11.77;;;8.10;;
3083;SDS011;1552;51.952;7.618;2023-04-06T01:21:55;13.00;;;7.60;;
3083;SDS011;1552;51.952;7.618;2023-04-06T01:24:23;9.93;;;7.43;;
3083;SDS011;1552;51.952;7.618;2023-04-06T01:26:49;12.50;;;8.10;;
3083;SDS011;1552;51.952;7.618;2023-04-06T01:29:15;13.13;;;8.33;;
3083;SDS011;1552;51.952;7.618;2023-04-06T01:31:42;13.83;;;7.97;;
3083;SDS011;1552;51.952;7.618;2023-04-06T01:34:08;12.50;;;8.17;;
3083;SDS011;1552;51.952;7.618;2023-04-06T01:36:35;11.63;;;8.43;;
3083;SDS011;1552;51.952;7.618;2023-04-06T01:39:01;13.63;;;7.77;;
3083;SDS011;1552;51.952;7.618;2023-04-06T01:41:29;11.47;;;7.60;;
3083;SDS011;1552;51.952;7.618;2023-04-06T01:43:55;11.27;;;7.77;;
3083;SDS011;1552;51.952;7.618;2023-04-06T01:46:21;11.40;;;8.40;;
3083;SDS011;1552;51.952;7.618;2023-04-06T01:48:48;14.77;;;8.70;;
3083;SDS011;1552;51.952;7.618;2023-04-06T01:51:15;13.07;;;8.33;;
3083;SDS011;1552;51.952;7.618;2023-04-06T01:53:41;11.63;;;8.20;;
3083;SDS011;1552;51.952;7.618;2023-04-06T01:56:07;13.60;;;8.67;;
3083;SDS011;1552;51.952;7.618;2023-04-06T01:58:35;11.90;;;8.87;;
3083;SDS011;1552;51.952;7.618;2023-04-06T02:01:02;13.43;;;8.13;;
3083;SDS011;1552;51.952;7.618;2023-04-06T02:03:28;13.17;;;7.73;;
3083;SDS011;1552;51.952;7.618;2023-04-06T02:05:55;13.63;;;8.03;;
3083;SDS011;1552;51.952;7.618;2023-04-06T02:08:22;12.47;;;8.67;;
3083;SDS011;1552;51.952;7.618;2023-04-06T02:10:48;15.60;;;8.43;;
3083;SDS011;1552;51.952;7.618;2023-04-06T02:13:14;10.80;;;7.63;;
3083;SDS011;1552;51.952;7.618;2023-04-06T02:15:42;12.60;;;8.77;;
3083;SDS011;1552;51.952;7.618;2023-04-06T02:18:08;12.63;;;8.20;;
3083;SDS011;1552;51.952;7.618;2023-04-06T02:20:35;11.17;;;7.53;;
3083;SDS011;1552;51.952;7.618;2023-04-06T02:23:01;12.10;;;7.90;;
3083;SDS011;1552;51.952;7.618;2023-04-06T02:25:27;13.37;;;7.90;;
3083;SDS011;1552;51.952;7.618;2023-04-06T02:27:54;12.90;;;8.50;;
3083;SDS011;1552;51.952;7.618;2023-04-06T02:30:20;14.73;;;9.20;;
3083;SDS011;1552;51.952;7.618;2023-04-06T02:32:48;13.33;;;7.77;;
3083;SDS011;1552;51.952;7.618;2023-04-06T02:35:15;14.33;;;8.37;;
3083;SDS011;1552;51.952;7.618;2023-04-06T02:37:41;15.07;;;8.47;;
3083;SDS011;1552;51.952;7.618;2023-04-06T02:40:08;14.47;;;7.97;;
3083;SDS011;1552;51.952;7.618;2023-04-06T02:42:34;14.27;;;8.43;;
3083;SDS011;1552;51.952;7.618;2023-04-06T02:45:01;15.40;;;9.50;;
3083;SDS011;1552;51.952;7.618;2023-04-06T02:47:27;15.50;;;8.40;;
3083;SDS011;1552;51.952;7.618;2023-04-06T02:49:55;12.00;;;8.53;;
3083;SDS011;1552;51.952;7.618;2023-04-06T02:52:21;12.47;;;8.60;;
3083;SDS011;1552;51.952;7.618;2023-04-06T02:54:47;11.90;;;8.43;;
3083;SDS011;1552;51.952;7.618;2023-04-06T02:57:16;14.73;;;9.00;;
3083;SDS011;1552;51.952;7.618;2023-04-06T02:59:42;14.90;;;9.77;;
3083;SDS011;1552;51.952;7.618;2023-04-06T03:02:08;13.07;;;8.77;;
3083;SDS011;1552;51.952;7.618;2023-04-06T03:04:35;13.43;;;8.63;;
3083;SDS011;1552;51.952;7.618;2023-04-06T03:07:02;14.23;;;8.97;;
3083;SDS011;1552;51.952;7.618;2023-04-06T03:09:29;12.93;;;9.20;;
3083;SDS011;1552;51.952;7.618;2023-04-06T03:11:55;13.43;;;9.43;;
3083;SDS011;1552;51.952;7.618;2023-04-06T03:14:22;14.57;;;8.83;;
3083;SDS011;1552;51.952;7.618;2023-04-06T03:16:48;15.60;;;9.20;;
3083;SDS011;1552;51.952;7.618;2023-04-06T03:19:15;13.10;;;9.10;;
3083;SDS011;1552;51.952;7.618;2023-04-06T03:21:41;14.37;;;9.30;;
3083;SDS011;1552;51.952;7.618;2023-04-06T03:24:09;15.90;;;9.23;;
3083;SDS011;1552;51.952;7.618;2023-04-06T03:26:35;12.90;;;9.50;;
3083;SDS011;1552;51.952;7.618;2023-04-06T03:29:02;13.47;;;9.50;;
3083;SDS011;1552;51.952;7.618;2023-04-06T03:31:28;12.97;;;9.30;;
3083;SDS011;1552;51.952;7.618;2023-04-06T03:33:55;15.87;;;9.33;;
3083;SDS011;1552;51.952;7.618;2023-04-06T03:36:21;16.43;;;9.50;;
3083;SDS011;1552;51.952;7.618;2023-04-06T03:38:48;13.10;;;9.10;;
3083;SDS011;1552;51.952;7.618;2023-04-06T03:41:15;16.90;;;9.67;;
3083;SDS011;1552;51.952;7.618;2023-04-06T03:43:42;14.97;;;9.37;;
3083;SDS011;1552;51.952;7.618;2023-04-06T03:46:08;14.23;;;9.23;;
3083;SDS011;1552;51.952;7.618;2023-04-06T03:48:34;14.77;;;9.03;;
3083;SDS011;1552;51.952;7.618;2023-04-06T03:51:01;15.67;;;9.53;;
3083;SDS011;1552;51.952;7.618;2023-04-06T03:53:27;14.40;;;9.07;;
3083;SDS011;1552;51.952;7.618;2023-04-06T03:55:54;13.47;;;8.80;;
3083;SDS011;1552;51.952;7.618;2023-04-06T03:58:22;17.83;;;9.57;;
3083;SDS011;1552;51.952;7.618;2023-04-06T04:00:48;13.23;;;9.17;;
3083;SDS011;1552;51.952;7.618;2023-04-06T04:03:14;13.93;;;8.60;;
3083;SDS011;1552;51.952;7.618;2023-04-06T04:05:41;15.47;;;9.40;;
3083;SDS011;1552;51.952;7.618;2023-04-06T04:08:07;14.10;;;9.77;;
3083;SDS011;1552;51.952;7.618;2023-04-06T04:10:34;15.40;;;9.43;;
3083;SDS011;1552;51.952;7.618;2023-04-06T04:13:00;14.00;;;9.07;;
3083;SDS011;1552;51.952;7.618;2023-04-06T04:15:28;13.43;;;9.70;;
3083;SDS011;1552;51.952;7.618;2023-04-06T04:17:54;12.40;;;8.70;;
3083;SDS011;1552;51.952;7.618;2023-04-06T04:20:21;14.37;;;9.33;;
3083;SDS011;1552;51.952;7.618;2023-04-06T04:22:47;14.10;;;10.00;;
3083;SDS011;1552;51.952;7.618;2023-04-06T04:25:14;15.60;;;9.13;;
3083;SDS011;1552;51.952;7.618;2023-04-06T04:27:40;17.50;;;10.70;;
3083;SDS011;1552;51.952;7.618;2023-04-06T04:30:07;15.70;;;9.60;;
3083;SDS011;1552;51.952;7.618;2023-04-06T04:32:35;12.53;;;9.80;;
3083;SDS011;1552;51.952;7.618;2023-04-06T04:35:01;15.30;;;10.07;;
3083;SDS011;1552;51.952;7.618;2023-04-06T04:37:28;14.60;;;9.03;;
3083;SDS011;1552;51.952;7.618;2023-04-06T04:39:54;15.00;;;9.40;;
3083;SDS011;1552;51.952;7.618;2023-04-06T04:42:20;17.47;;;10.57;;
3083;SDS011;1552;51.952;7.618;2023-04-06T04:44:47;19.17;;;9.90;;
3083;SDS011;1552;51.952;7.618;2023-04-06T04:47:13;14.67;;;10.03;;
3083;SDS011;1552;51.952;7.618;2023-04-06T04:49:41;16.27;;;10.27;;
3083;SDS011;1552;51.952;7.618;2023-04-06T04:52:07;15.93;;;10.17;;
3083;SDS011;1552;51.952;7.618;2023-04-06T04:54:34;17.23;;;10.90;;
3083;SDS011;1552;51.952;7.618;2023-04-06T04:57:00;15.60;;;10.67;;
3083;SDS011;1552;51.952;7.618;2023-04-06T04:59:26;15.83;;;10.13;;
3083;SDS011;1552;51.952;7.618;2023-04-06T05:01:54;16.50;;;9.97;;
3083;SDS011;1552;51.952;7.618;2023-04-06T05:04:21;16.00;;;10.67;;
3083;SDS011;1552;51.952;7.618;2023-04-06T05:06:49;18.50;;;10.80;;
3083;SDS011;1552;51.952;7.618;2023-04-06T05:09:15;13.93;;;10.40;;
3083;SDS011;1552;51.952;7.618;2023-04-06T05:11:42;20.73;;;10.97;;
3083;SDS011;1552;51.952;7.618;2023-04-06T05:14:09;21.20;;;10.80;;
3083;SDS011;1552;51.952;7.618;2023-04-06T05:16:35;20.57;;;11.60;;
3083;SDS011;1552;51.952;7.618;2023-04-06T05:19:02;25.13;;;11.23;;
3083;SDS011;1552;51.952;7.618;2023-04-06T05:21:28;20.57;;;11.00;;
3083;SDS011;1552;51.952;7.618;2023-04-06T05:23:56;25.70;;;11.47;;
3083;SDS011;1552;51.952;7.618;2023-04-06T05:26:23;18.50;;;11.23;;
3083;SDS011;1552;51.952;7.618;2023-04-06T05:28:50;21.93;;;10.80;;
3083;SDS011;1552;51.952;7.618;2023-04-06T05:31:17;21.67;;;11.50;;
3083;SDS011;1552;51.952;7.618;2023-04-06T05:33:43;26.40;;;11.47;;
3083;SDS011;1552;51.952;7.618;2023-04-06T05:36:09;23.87;;;11.93;;
3083;SDS011;1552;51.952;7.618;2023-04-06T05:38:36;27.07;;;13.63;;
3083;SDS011;1552;51.952;7.618;2023-04-06T05:41:04;26.10;;;13.83;;
3083;SDS011;1552;51.952;7.618;2023-04-06T05:43:31;20.50;;;11.50;;
3083;SDS011;1552;51.952;7.618;2023-04-06T05:45:57;21.53;;;11.63;;
3083;SDS011;1552;51.952;7.618;2023-04-06T05:48:24;20.23;;;10.93;;
3083;SDS011;1552;51.952;7.618;2023-04-06T05:50:51;16.53;;;10.73;;
3083;SDS011;1552;51.952;7.618;2023-04-06T05:53:18;19.30;;;11.03;;
3083;SDS011;1552;51.952;7.618;2023-04-06T05:55:46;19.43;;;11.27;;
3083;SDS011;1552;51.952;7.618;2023-04-06T05:58:13;19.00;;;11.07;;
3083;SDS011;1552;51.952;7.618;2023-04-06T06:00:40;22.57;;;11.10;;
3083;SDS011;1552;51.952;7.618;2023-04-06T06:03:07;18.37;;;10.50;;
3083;SDS011;1552;51.952;7.618;2023-04-06T06:05:33;17.77;;;10.83;;
3083;SDS011;1552;51.952;7.618;2023-04-06T06:08:00;17.20;;;10.70;;
3083;SDS011;1552;51.952;7.618;2023-04-06T06:10:27;21.47;;;12.13;;
3083;SDS011;1552;51.952;7.618;2023-04-06T06:12:53;19.77;;;11.90;;
3083;SDS011;1552;51.952;7.618;2023-04-06T06:15:21;21.70;;;12.17;;
3083;SDS011;1552;51.952;7.618;2023-04-06T06:17:47;21.60;;;11.07;;
3083;SDS011;1552;51.952;7.618;2023-04-06T06:20:14;30.97;;;11.40;;
3083;SDS011;1552;51.952;7.618;2023-04-06T06:22:40;18.33;;;12.27;;
3083;SDS011;1552;51.952;7.618;2023-04-06T06:25:06;21.87;;;11.20;;
3083;SDS011;1552;51.952;7.618;2023-04-06T06:27:33;24.37;;;12.03;;
3083;SDS011;1552;51.952;7.618;2023-04-06T06:30:00;25.87;;;11.37;;
3083;SDS011;1552;51.952;7.618;2023-04-06T06:32:27;24.90;;;12.40;;
3083;SDS011;1552;51.952;7.618;2023-04-06T06:34:54;19.47;;;11.83;;
3083;SDS011;1552;51.952;7.618;2023-04-06T06:37:20;22.37;;;11.33;;
3083;SDS011;1552;51.952;7.618;2023-04-06T06:39:47;22.40;;;11.10;;
3083;SDS011;1552;51.952;7.618;2023-04-06T06:42:13;18.83;;;10.73;;
3083;SDS011;1552;51.952;7.618;2023-04-06T06:44:39;15.70;;;11.30;;
3083;SDS011;1552;51.952;7.618;2023-04-06T06:47:06;15.57;;;10.33;;
3083;SDS011;1552;51.952;7.618;2023-04-06T06:49:33;17.57;;;10.03;;
3083;SDS011;1552;51.952;7.618;2023-04-06T06:52:00;20.47;;;11.00;;
3083;SDS011;1552;51.952;7.618;2023-04-06T06:54:26;19.30;;;10.87;;
3083;SDS011;1552;51.952;7.618;2023-04-06T06:56:53;16.80;;;11.40;;
3083;SDS011;1552;51.952;7.618;2023-04-06T06:59:19;23.37;;;11.30;;
3083;SDS011;1552;51.952;7.618;2023-04-06T07:01:46;16.13;;;10.13;;
3083;SDS011;1552;51.952;7.618;2023-04-06T07:04:12;21.53;;;10.57;;
3083;SDS011;1552;51.952;7.618;2023-04-06T07:06:40;20.63;;;10.07;;
3083;SDS011;1552;51.952;7.618;2023-04-06T07:09:06;20.97;;;10.63;;
3083;SDS011;1552;51.952;7.618;2023-04-06T07:11:32;19.27;;;10.27;;
3083;SDS011;1552;51.952;7.618;2023-04-06T07:13:59;18.40;;;9.73;;
3083;SDS011;1552;51.952;7.618;2023-04-06T07:16:25;16.50;;;10.63;;
3083;SDS011;1552;51.952;7.618;2023-04-06T07:18:51;16.23;;;10.33;;
3083;SDS011;1552;51.952;7.618;2023-04-06T07:21:18;17.03;;;9.20;;
3083;SDS011;1552;51.952;7.618;2023-04-06T07:23:45;17.33;;;9.13;;
3083;SDS011;1552;51.952;7.618;2023-04-06T07:26:13;17.20;;;9.53;;
3083;SDS011;1552;51.952;7.618;2023-04-06T07:28:39;14.90;;;8.73;;
3083;SDS011;1552;51.952;7.618;2023-04-06T07:31:06;17.37;;;9.90;;
3083;SDS011;1552;51.952;7.618;2023-04-06T07:33:32;13.97;;;8.10;;
3083;SDS011;1552;51.952;7.618;2023-04-06T07:35:58;13.97;;;8.63;;
3083;SDS011;1552;51.952;7.618;2023-04-06T07:38:25;14.83;;;9.33;;
3083;SDS011;1552;51.952;7.618;2023-04-06T07:40:53;15.97;;;9.27;;
3083;SDS011;1552;51.952;7.618;2023-04-06T07:43:19;13.87;;;8.30;;
3083;SDS011;1552;51.952;7.618;2023-04-06T07:45:45;15.67;;;8.53;;
3083;SDS011;1552;51.952;7.618;2023-04-06T07:48:12;14.30;;;8.20;;
3083;SDS011;1552;51.952;7.618;2023-04-06T07:50:38;13.70;;;8.43;;
3083;SDS011;1552;51.952;7.618;2023-04-06T07:53:04;13.53;;;8.00;;
3083;SDS011;1552;51.952;7.618;2023-04-06T07:55:31;13.03;;;7.80;;
3083;SDS011;1552;51.952;7.618;2023-04-06T07:57:58;11.97;;;8.10;;
3083;SDS011;1552;51.952;7.618;2023-04-06T08:00:25;11.97;;;7.43;;
3083;SDS011;1552;51.952;7.618;2023-04-06T08:02:51;12.13;;;7.80;;
3083;SDS011;1552;51.952;7.618;2023-04-06T08:05:17;11.50;;;8.17;;
3083;SDS011;1552;51.952;7.618;2023-04-06T08:07:44;13.47;;;7.63;;
3083;SDS011;1552;51.952;7.618;2023-04-06T08:10:10;12.47;;;7.40;;
3083;SDS011;1552;51.952;7.618;2023-04-06T08:12:36;12.60;;;8.37;;
3083;SDS011;1552;51.952;7.618;2023-04-06T08:15:05;13.57;;;8.33;;
3083;SDS011;1552;51.952;7.618;2023-04-06T08:17:31;13.17;;;7.87;;
3083;SDS011;1552;51.952;7.618;2023-04-06T08:19:58;14.40;;;7.93;;
3083;SDS011;1552;51.952;7.618;2023-04-06T08:22:25;14.40;;;8.37;;
3083;SDS011;1552;51.952;7.618;2023-04-06T08:24:51;14.77;;;8.57;;
3083;SDS011;1552;51.952;7.618;2023-04-06T08:27:18;16.33;;;8.93;;
3083;SDS011;1552;51.952;7.618;2023-04-06T08:29:44;11.53;;;8.57;;
3083;SDS011;1552;51.952;7.618;2023-04-06T08:32:12;14.30;;;8.97;;
3083;SDS011;1552;51.952;7.618;2023-04-06T08:34:38;11.97;;;8.20;;
3083;SDS011;1552;51.952;7.618;2023-04-06T08:37:04;14.97;;;9.70;;
3083;SDS011;1552;51.952;7.618;2023-04-06T08:39:32;13.60;;;8.50;;
3083;SDS011;1552;51.952;7.618;2023-04-06T08:41:58;14.67;;;8.70;;
3083;SDS011;1552;51.952;7.618;2023-04-06T08:44:25;14.10;;;8.83;;
3083;SDS011;1552;51.952;7.618;2023-04-06T08:46:52;16.97;;;8.77;;
3083;SDS011;1552;51.952;7.618;2023-04-06T08:49:20;14.27;;;9.30;;
3083;SDS011;1552;51.952;7.618;2023-04-06T08:51:47;16.00;;;8.87;;
3083;SDS011;1552;51.952;7.618;2023-04-06T08:54:14;15.37;;;9.60;;
3083;SDS011;1552;51.952;7.618;2023-04-06T08:56:40;16.57;;;9.43;;
3083;SDS011;1552;51.952;7.618;2023-04-06T08:59:06;17.60;;;10.10;;
3083;SDS011;1552;51.952;7.618;2023-04-06T09:01:33;16.60;;;10.13;;
3083;SDS011;1552;51.952;7.618;2023-04-06T09:04:02;17.50;;;9.60;;
3083;SDS011;1552;51.952;7.618;2023-04-06T09:06:31;17.90;;;9.63;;
3083;SDS011;1552;51.952;7.618;2023-04-06T09:08:57;14.10;;;9.13;;
3083;SDS011;1552;51.952;7.618;2023-04-06T09:11:24;16.20;;;9.87;;
3083;SDS011;1552;51.952;7.618;2023-04-06T09:13:52;15.13;;;9.87;;
3083;SDS011;1552;51.952;7.618;2023-04-06T09:16:18;15.73;;;9.30;;
3083;SDS011;1552;51.952;7.618;2023-04-06T09:18:45;14.37;;;9.23;;
3083;SDS011;1552;51.952;7.618;2023-04-06T09:21:12;19.43;;;10.47;;
3083;SDS011;1552;51.952;7.618;2023-04-06T09:23:40;18.47;;;11.07;;
3083;SDS011;1552;51.952;7.618;2023-04-06T09:26:07;17.33;;;10.73;;
3083;SDS011;1552;51.952;7.618;2023-04-06T09:28:43;17.30;;;10.87;;
3083;SDS011;1552;51.952;7.618;2023-04-06T09:31:10;17.13;;;10.20;;
3083;SDS011;1552;51.952;7.618;2023-04-06T09:33:37;19.73;;;10.77;;
3083;SDS011;1552;51.952;7.618;2023-04-06T09:36:04;17.80;;;10.57;;
3083;SDS011;1552;51.952;7.618;2023-04-06T09:38:30;22.40;;;11.33;;
3083;SDS011;1552;51.952;7.618;2023-04-06T09:40:58;20.77;;;12.70;;
3083;SDS011;1552;51.952;7.618;2023-04-06T09:43:24;17.60;;;10.60;;
3083;SDS011;1552;51.952;7.618;2023-04-06T09:45:51;18.57;;;11.43;;
3083;SDS011;1552;51.952;7.618;2023-04-06T09:48:18;17.57;;;11.23;;
3083;SDS011;1552;51.952;7.618;2023-04-06T09:50:44;19.60;;;12.63;;
3083;SDS011;1552;51.952;7.618;2023-04-06T09:53:11;19.53;;;11.90;;
3083;SDS011;1552;51.952;7.618;2023-04-06T09:55:39;18.17;;;12.57;;
3083;SDS011;1552;51.952;7.618;2023-04-06T09:58:09;17.33;;;12.30;;
3083;SDS011;1552;51.952;7.618;2023-04-06T10:00:40;23.93;;;13.17;;
3083;SDS011;1552;51.952;7.618;2023-04-06T10:03:17;23.07;;;13.70;;
3083;SDS011;1552;51.952;7.618;2023-04-06T10:05:46;23.80;;;13.97;;
3083;SDS011;1552;51.952;7.618;2023-04-06T10:08:15;20.80;;;13.23;;
3083;SDS011;1552;51.952;7.618;2023-04-06T10:10:42;25.37;;;13.27;;
3083;SDS011;1552;51.952;7.618;2023-04-06T10:13:10;24.13;;;14.00;;
3083;SDS011;1552;51.952;7.618;2023-04-06T10:15:37;23.03;;;13.80;;
3083;SDS011;1552;51.952;7.618;2023-04-06T10:18:04;22.33;;;13.83;;
3083;SDS011;1552;51.952;7.618;2023-04-06T10:20:34;22.13;;;14.73;;
3083;SDS011;1552;51.952;7.618;2023-04-06T10:23:05;22.83;;;14.60;;
3083;SDS011;1552;51.952;7.618;2023-04-06T10:25:32;19.93;;;14.43;;
3083;SDS011;1552;51.952;7.618;2023-04-06T10:27:59;22.27;;;14.47;;
3083;SDS011;1552;51.952;7.618;2023-04-06T10:30:27;23.03;;;13.90;;
3083;SDS011;1552;51.952;7.618;2023-04-06T10:32:54;24.83;;;14.40;;
3083;SDS011;1552;51.952;7.618;2023-04-06T10:35:20;26.80;;;15.50;;
3083;SDS011;1552;51.952;7.618;2023-04-06T10:37:48;21.37;;;12.87;;
3083;SDS011;1552;51.952;7.618;2023-04-06T10:40:18;22.13;;;14.53;;
3083;SDS011;1552;51.952;7.618;2023-04-06T10:42:45;24.53;;;14.67;;
3083;SDS011;1552;51.952;7.618;2023-04-06T10:45:18;23.00;;;14.13;;
3083;SDS011;1552;51.952;7.618;2023-04-06T10:47:46;21.13;;;13.83;;
3083;SDS011;1552;51.952;7.618;2023-04-06T10:50:13;24.00;;;14.27;;
3083;SDS011;1552;51.952;7.618;2023-04-06T10:52:40;23.60;;;14.37;;
3083;SDS011;1552;51.952;7.618;2023-04-06T10:55:07;19.43;;;12.80;;
3083;SDS011;1552;51.952;7.618;2023-04-06T10:57:34;22.17;;;13.07;;
3083;SDS011;1552;51.952;7.618;2023-04-06T11:00:02;21.27;;;13.30;;
3083;SDS011;1552;51.952;7.618;2023-04-06T11:02:29;21.23;;;13.80;;
3083;SDS011;1552;51.952;7.618;2023-04-06T11:04:57;22.90;;;13.63;;
3083;SDS011;1552;51.952;7.618;2023-04-06T11:07:24;25.77;;;14.80;;
3083;SDS011;1552;51.952;7.618;2023-04-06T11:09:51;23.70;;;13.97;;
3083;SDS011;1552;51.952;7.618;2023-04-06T11:12:22;20.70;;;13.90;;
3083;SDS011;1552;51.952;7.618;2023-04-06T11:14:55;21.10;;;13.87;;
3083;SDS011;1552;51.952;7.618;2023-04-06T11:17:26;24.90;;;13.70;;
3083;SDS011;1552;51.952;7.618;2023-04-06T11:19:52;23.83;;;14.37;;
3083;SDS011;1552;51.952;7.618;2023-04-06T11:22:20;26.40;;;14.20;;
3083;SDS011;1552;51.952;7.618;2023-04-06T11:24:46;22.37;;;14.70;;
3083;SDS011;1552;51.952;7.618;2023-04-06T11:27:14;22.57;;;14.27;;
3083;SDS011;1552;51.952;7.618;2023-04-06T11:29:41;20.70;;;14.13;;
3083;SDS011;1552;51.952;7.618;2023-04-06T11:32:07;19.10;;;12.07;;
3083;SDS011;1552;51.952;7.618;2023-04-06T11:34:34;18.33;;;11.67;;
3083;SDS011;1552;51.952;7.618;2023-04-06T11:37:02;20.97;;;12.90;;
3083;SDS011;1552;51.952;7.618;2023-04-06T11:39:32;22.37;;;14.73;;
3083;SDS011;1552;51.952;7.618;2023-04-06T11:42:03;22.20;;;14.67;;
3083;SDS011;1552;51.952;7.618;2023-04-06T11:44:31;21.70;;;13.63;;
3083;SDS011;1552;51.952;7.618;2023-04-06T11:46:58;23.50;;;15.47;;
3083;SDS011;1552;51.952;7.618;2023-04-06T11:49:26;22.63;;;14.93;;
3083;SDS011;1552;51.952;7.618;2023-04-06T11:51:52;22.17;;;14.07;;
3083;SDS011;1552;51.952;7.618;2023-04-06T11:54:28;19.33;;;12.27;;
3083;SDS011;1552;51.952;7.618;2023-04-06T11:56:57;19.23;;;12.43;;
3083;SDS011;1552;51.952;7.618;2023-04-06T11:59:23;18.77;;;12.37;;
3083;SDS011;1552;51.952;7.618;2023-04-06T12:01:49;21.77;;;12.70;;
3083;SDS011;1552;51.952;7.618;2023-04-06T12:04:17;24.03;;;13.90;;
3083;SDS011;1552;51.952;7.618;2023-04-06T12:06:43;18.93;;;12.80;;
3083;SDS011;1552;51.952;7.618;2023-04-06T12:09:09;19.53;;;12.57;;
3083;SDS011;1552;51.952;7.618;2023-04-06T12:11:36;21.53;;;13.13;;
3083;SDS011;1552;51.952;7.618;2023-04-06T12:14:03;19.23;;;12.83;;
3083;SDS011;1552;51.952;7.618;2023-04-06T12:16:30;23.00;;;13.13;;
3083;SDS011;1552;51.952;7.618;2023-04-06T12:18:56;20.57;;;13.67;;
3083;SDS011;1552;51.952;7.618;2023-04-06T12:21:22;18.57;;;12.20;;
3083;SDS011;1552;51.952;7.618;2023-04-06T12:23:49;18.77;;;12.13;;
3083;SDS011;1552;51.952;7.618;2023-04-06T12:26:15;17.17;;;11.10;;
3083;SDS011;1552;51.952;7.618;2023-04-06T12:28:42;15.50;;;10.83;;
3083;SDS011;1552;51.952;7.618;2023-04-06T12:31:15;15.23;;;10.73;;
3083;SDS011;1552;51.952;7.618;2023-04-06T12:33:41;16.20;;;10.33;;
3083;SDS011;1552;51.952;7.618;2023-04-06T12:36:11;15.17;;;9.90;;
3083;SDS011;1552;51.952;7.618;2023-04-06T12:38:37;19.13;;;10.37;;
3083;SDS011;1552;51.952;7.618;2023-04-06T12:41:04;16.98;;;10.70;;
3083;SDS011;1552;51.952;7.618;2023-04-06T12:43:31;16.60;;;10.80;;
3083;SDS011;1552;51.952;7.618;2023-04-06T12:45:57;16.73;;;10.57;;
3083;SDS011;1552;51.952;7.618;2023-04-06T12:48:25;17.33;;;11.33;;
3083;SDS011;1552;51.952;7.618;2023-04-06T12:50:55;17.23;;;11.57;;
3083;SDS011;1552;51.952;7.618;2023-04-06T12:53:22;17.83;;;11.63;;
3083;SDS011;1552;51.952;7.618;2023-04-06T12:55:48;16.90;;;11.27;;
3083;SDS011;1552;51.952;7.618;2023-04-06T12:58:15;17.97;;;11.93;;
3083;SDS011;1552;51.952;7.618;2023-04-06T13:00:42;16.27;;;11.52;;
3083;SDS011;1552;51.952;7.618;2023-04-06T13:03:08;20.33;;;12.70;;
3083;SDS011;1552;51.952;7.618;2023-04-06T13:05:36;18.33;;;11.43;;
3083;SDS011;1552;51.952;7.618;2023-04-06T13:08:02;19.58;;;12.35;;
3083;SDS011;1552;51.952;7.618;2023-04-06T13:10:28;22.40;;;13.20;;
3083;SDS011;1552;51.952;7.618;2023-04-06T13:12:55;24.08;;;13.73;;
3083;SDS011;1552;51.952;7.618;2023-04-06T13:15:21;23.10;;;13.48;;
3083;SDS011;1552;51.952;7.618;2023-04-06T13:17:48;19.60;;;11.98;;
3083;SDS011;1552;51.952;7.618;2023-04-06T13:20:15;18.30;;;12.27;;
3083;SDS011;1552;51.952;7.618;2023-04-06T13:22:43;20.90;;;12.40;;
3083;SDS011;1552;51.952;7.618;2023-04-06T13:25:09;19.03;;;12.00;;
3083;SDS011;1552;51.952;7.618;2023-04-06T13:27:35;18.00;;;12.35;;
3083;SDS011;1552;51.952;7.618;2023-04-06T13:30:02;21.67;;;12.90;;
3083;SDS011;1552;51.952;7.618;2023-04-06T13:32:28;20.65;;;12.48;;
3083;SDS011;1552;51.952;7.618;2023-04-06T13:34:55;20.08;;;12.65;;
3083;SDS011;1552;51.952;7.618;2023-04-06T13:37:21;20.02;;;13.70;;
3083;SDS011;1552;51.952;7.618;2023-04-06T13:39:49;22.23;;;13.83;;
3083;SDS011;1552;51.952;7.618;2023-04-06T13:42:15;19.43;;;12.97;;
3083;SDS011;1552;51.952;7.618;2023-04-06T13:44:42;21.25;;;13.20;;
3083;SDS011;1552;51.952;7.618;2023-04-06T13:47:08;23.20;;;14.37;;
3083;SDS011;1552;51.952;7.618;2023-04-06T13:49:34;21.45;;;14.05;;
3083;SDS011;1552;51.952;7.618;2023-04-06T13:52:01;24.02;;;15.23;;
3083;SDS011;1552;51.952;7.618;2023-04-06T13:54:28;22.75;;;13.88;;
3083;SDS011;1552;51.952;7.618;2023-04-06T13:56:55;22.50;;;14.30;;
3083;SDS011;1552;51.952;7.618;2023-04-06T13:59:22;22.93;;;14.83;;
3083;SDS011;1552;51.952;7.618;2023-04-06T14:01:48;21.88;;;14.43;;
3083;SDS011;1552;51.952;7.618;2023-04-06T14:04:15;22.67;;;14.30;;
3083;SDS011;1552;51.952;7.618;2023-04-06T14:06:41;23.80;;;14.40;;
3083;SDS011;1552;51.952;7.618;2023-04-06T14:09:07;21.33;;;14.43;;
3083;SDS011;1552;51.952;7.618;2023-04-06T14:11:34;25.02;;;15.80;;
3083;SDS011;1552;51.952;7.618;2023-04-06T14:14:03;22.53;;;14.70;;
3083;SDS011;1552;51.952;7.618;2023-04-06T14:16:30;25.30;;;15.50;;
3083;SDS011;1552;51.952;7.618;2023-04-06T14:18:56;22.27;;;14.35;;
3083;SDS011;1552;51.952;7.618;2023-04-06T14:21:23;27.83;;;15.60;;
3083;SDS011;1552;51.952;7.618;2023-04-06T14:23:50;24.23;;;14.47;;
3083;SDS011;1552;51.952;7.618;2023-04-06T14:26:17;25.87;;;15.17;;
3083;SDS011;1552;51.952;7.618;2023-04-06T14:28:44;24.87;;;15.53;;
3083;SDS011;1552;51.952;7.618;2023-04-06T14:31:14;25.20;;;15.20;;
3083;SDS011;1552;51.952;7.618;2023-04-06T14:33:41;23.27;;;14.90;;
3083;SDS011;1552;51.952;7.618;2023-04-06T14:36:08;24.70;;;15.50;;
3083;SDS011;1552;51.952;7.618;2023-04-06T14:38:35;23.73;;;13.73;;
3083;SDS011;1552;51.952;7.618;2023-04-06T14:41:01;24.87;;;15.00;;
3083;SDS011;1552;51.952;7.618;2023-04-06T14:43:28;20.60;;;13.30;;
3083;SDS011;1552;51.952;7.618;2023-04-06T14:45:59;25.37;;;15.07;;
3083;SDS011;1552;51.952;7.618;2023-04-06T14:48:26;26.33;;;15.20;;
3083;SDS011;1552;51.952;7.618;2023-04-06T14:50:53;25.07;;;15.10;;